sensor_id;sensor_type;location;lat;lon;timestamp;P1;durP1;ratioP1;P2;durP2;ratioP2
64826;SDS011;51265;53.972;12.286;2022-08-06T00:01:54;8.48;;;1.83;;
64826;SDS011;51265;53.972;12.286;2022-08-06T00:04:21;4.13;;;1.50;;
64826;SDS011;51265;53.972;12.286;2022-08-06T00:06:48;3.83;;;1.35;;
64826;SDS011;51265;53.972;12.286;2022-08-06T00:09:14;7.53;;;1.63;;
64826;SDS011;51265;53.972;12.286;2022-08-06T00:11:40;4.28;;;1.60;;
64826;SDS011;51265;53.972;12.286;2022-08-06T00:14:06;5.38;;;2.05;;
64826;SDS011;51265;53.972;12.286;2022-08-06T00:16:33;7.53;;;1.67;;
64826;SDS011;51265;53.972;12.286;2022-08-06T00:19:00;6.53;;;1.70;;
64826;SDS011;51265;53.972;12.286;2022-08-06T00:21:25;6.97;;;1.70;;
64826;SDS011;51265;53.972;12.286;2022-08-06T00:23:51;3.78;;;1.48;;
64826;SDS011;51265;53.972;12.286;2022-08-06T00:26:17;7.35;;;1.45;;
64826;SDS011;51265;53.972;12.286;2022-08-06T00:28:43;2.92;;;1.75;;
64826;SDS011;51265;53.972;12.286;2022-08-06T00:31:09;4.25;;;1.67;;
64826;SDS011;51265;53.972;12.286;2022-08-06T00:33:35;10.65;;;1.95;;
64826;SDS011;51265;53.972;12.286;2022-08-06T00:36:01;3.47;;;1.60;;
64826;SDS011;51265;53.972;12.286;2022-08-06T00:38:27;8.13;;;1.52;;
64826;SDS011;51265;53.972;12.286;2022-08-06T00:40:53;4.05;;;1.60;;
64826;SDS011;51265;53.972;12.286;2022-08-06T00:43:19;7.93;;;1.95;;
64826;SDS011;51265;53.972;12.286;2022-08-06T00:45:46;7.10;;;1.80;;
64826;SDS011;51265;53.972;12.286;2022-08-06T00:48:12;6.80;;;2.10;;
64826;SDS011;51265;53.972;12.286;2022-08-06T00:50:39;8.02;;;2.00;;
64826;SDS011;51265;53.972;12.286;2022-08-06T00:53:05;3.25;;;1.75;;
64826;SDS011;51265;53.972;12.286;2022-08-06T00:55:31;8.02;;;1.70;;
64826;SDS011;51265;53.972;12.286;2022-08-06T00:57:57;4.50;;;1.70;;
64826;SDS011;51265;53.972;12.286;2022-08-06T01:00:23;7.25;;;1.95;;
64826;SDS011;51265;53.972;12.286;2022-08-06T01:02:48;4.63;;;1.80;;
64826;SDS011;51265;53.972;12.286;2022-08-06T01:05:14;3.03;;;1.73;;
64826;SDS011;51265;53.972;12.286;2022-08-06T01:07:40;5.85;;;1.90;;
64826;SDS011;51265;53.972;12.286;2022-08-06T01:10:06;5.65;;;1.80;;
64826;SDS011;51265;53.972;12.286;2022-08-06T01:12:32;3.58;;;1.80;;
64826;SDS011;51265;53.972;12.286;2022-08-06T01:14:58;4.85;;;1.83;;
64826;SDS011;51265;53.972;12.286;2022-08-06T01:17:33;4.95;;;1.88;;
64826;SDS011;51265;53.972;12.286;2022-08-06T01:28:43;3.72;;;1.98;;
64826;SDS011;51265;53.972;12.286;2022-08-06T01:31:41;7.97;;;2.50;;
64826;SDS011;51265;53.972;12.286;2022-08-06T01:34:22;6.65;;;2.45;;
64826;SDS011;51265;53.972;12.286;2022-08-06T01:40:19;9.55;;;3.08;;
64826;SDS011;51265;53.972;12.286;2022-08-06T01:43:00;6.95;;;3.17;;
64826;SDS011;51265;53.972;12.286;2022-08-06T01:45:29;7.88;;;3.25;;
64826;SDS011;51265;53.972;12.286;2022-08-06T01:47:59;4.88;;;3.50;;
64826;SDS011;51265;53.972;12.286;2022-08-06T01:50:33;5.05;;;3.40;;
64826;SDS011;51265;53.972;12.286;2022-08-06T01:53:06;4.95;;;3.42;;
64826;SDS011;51265;53.972;12.286;2022-08-06T01:55:34;9.23;;;3.28;;
64826;SDS011;51265;53.972;12.286;2022-08-06T01:58:06;7.05;;;3.72;;
64826;SDS011;51265;53.972;12.286;2022-08-06T02:00:35;6.95;;;3.70;;
64826;SDS011;51265;53.972;12.286;2022-08-06T02:03:07;8.15;;;3.85;;
64826;SDS011;51265;53.972;12.286;2022-08-06T02:05:43;7.88;;;4.00;;
64826;SDS011;51265;53.972;12.286;2022-08-06T02:08:11;8.85;;;4.35;;
64826;SDS011;51265;53.972;12.286;2022-08-06T02:10:38;10.98;;;4.60;;
64826;SDS011;51265;53.972;12.286;2022-08-06T02:13:07;10.35;;;3.92;;
64826;SDS011;51265;53.972;12.286;2022-08-06T02:15:35;7.28;;;4.10;;
64826;SDS011;51265;53.972;12.286;2022-08-06T02:18:04;7.18;;;4.20;;
64826;SDS011;51265;53.972;12.286;2022-08-06T02:20:37;9.68;;;4.28;;
64826;SDS011;51265;53.972;12.286;2022-08-06T02:23:07;7.57;;;3.97;;
64826;SDS011;51265;53.972;12.286;2022-08-06T02:25:37;5.57;;;4.32;;
64826;SDS011;51265;53.972;12.286;2022-08-06T02:28:05;10.65;;;4.05;;
64826;SDS011;51265;53.972;12.286;2022-08-06T02:30:33;5.47;;;4.28;;
64826;SDS011;51265;53.972;12.286;2022-08-06T02:33:02;10.48;;;4.20;;
64826;SDS011;51265;53.972;12.286;2022-08-06T02:35:29;9.00;;;4.35;;
64826;SDS011;51265;53.972;12.286;2022-08-06T02:38:00;9.18;;;4.57;;
64826;SDS011;51265;53.972;12.286;2022-08-06T02:40:34;11.55;;;5.40;;
64826;SDS011;51265;53.972;12.286;2022-08-06T02:43:04;7.13;;;4.50;;
64826;SDS011;51265;53.972;12.286;2022-08-06T02:45:43;8.38;;;4.97;;
64826;SDS011;51265;53.972;12.286;2022-08-06T02:48:23;7.47;;;5.25;;
64826;SDS011;51265;53.972;12.286;2022-08-06T02:50:50;5.93;;;4.60;;
64826;SDS011;51265;53.972;12.286;2022-08-06T02:53:19;11.27;;;5.00;;
64826;SDS011;51265;53.972;12.286;2022-08-06T02:55:54;6.68;;;5.25;;
64826;SDS011;51265;53.972;12.286;2022-08-06T02:58:28;12.85;;;5.25;;
64826;SDS011;51265;53.972;12.286;2022-08-06T03:03:26;7.55;;;5.00;;
64826;SDS011;51265;53.972;12.286;2022-08-06T03:05:54;8.55;;;5.20;;
64826;SDS011;51265;53.972;12.286;2022-08-06T03:08:23;11.65;;;5.47;;
64826;SDS011;51265;53.972;12.286;2022-08-06T03:10:52;10.38;;;5.38;;
64826;SDS011;51265;53.972;12.286;2022-08-06T03:13:20;11.82;;;5.88;;
64826;SDS011;51265;53.972;12.286;2022-08-06T03:15:48;10.43;;;5.65;;
64826;SDS011;51265;53.972;12.286;2022-08-06T03:18:15;12.73;;;5.60;;
64826;SDS011;51265;53.972;12.286;2022-08-06T03:20:43;11.52;;;6.45;;
64826;SDS011;51265;53.972;12.286;2022-08-06T03:23:09;7.85;;;6.72;;
64826;SDS011;51265;53.972;12.286;2022-08-06T03:25:38;8.40;;;5.80;;
64826;SDS011;51265;53.972;12.286;2022-08-06T03:28:05;14.52;;;6.55;;
64826;SDS011;51265;53.972;12.286;2022-08-06T03:30:32;14.40;;;6.20;;
64826;SDS011;51265;53.972;12.286;2022-08-06T03:33:00;11.27;;;6.22;;
64826;SDS011;51265;53.972;12.286;2022-08-06T03:35:29;11.43;;;6.88;;
64826;SDS011;51265;53.972;12.286;2022-08-06T03:37:56;11.73;;;6.28;;
64826;SDS011;51265;53.972;12.286;2022-08-06T03:40:23;12.20;;;6.57;;
64826;SDS011;51265;53.972;12.286;2022-08-06T03:42:51;9.93;;;6.00;;
64826;SDS011;51265;53.972;12.286;2022-08-06T03:45:18;9.48;;;6.50;;
64826;SDS011;51265;53.972;12.286;2022-08-06T03:47:47;11.50;;;6.78;;
64826;SDS011;51265;53.972;12.286;2022-08-06T03:50:22;11.48;;;6.03;;
64826;SDS011;51265;53.972;12.286;2022-08-06T03:52:54;13.57;;;6.30;;
64826;SDS011;51265;53.972;12.286;2022-08-06T03:55:25;9.30;;;6.22;;
64826;SDS011;51265;53.972;12.286;2022-08-06T03:57:55;10.30;;;6.15;;
64826;SDS011;51265;53.972;12.286;2022-08-06T04:00:29;11.02;;;5.68;;
64826;SDS011;51265;53.972;12.286;2022-08-06T04:02:58;7.97;;;5.60;;
64826;SDS011;51265;53.972;12.286;2022-08-06T04:05:27;12.93;;;5.50;;
64826;SDS011;51265;53.972;12.286;2022-08-06T04:07:55;8.55;;;4.82;;
64826;SDS011;51265;53.972;12.286;2022-08-06T04:10:24;14.48;;;5.35;;
64826;SDS011;51265;53.972;12.286;2022-08-06T04:12:53;9.05;;;4.85;;
64826;SDS011;51265;53.972;12.286;2022-08-06T04:15:20;6.50;;;4.50;;
64826;SDS011;51265;53.972;12.286;2022-08-06T04:17:46;9.48;;;4.28;;
64826;SDS011;51265;53.972;12.286;2022-08-06T04:20:16;7.68;;;4.53;;
64826;SDS011;51265;53.972;12.286;2022-08-06T04:22:45;12.18;;;4.60;;
64826;SDS011;51265;53.972;12.286;2022-08-06T04:25:11;7.65;;;3.80;;
64826;SDS011;51265;53.972;12.286;2022-08-06T04:27:39;4.70;;;3.72;;
64826;SDS011;51265;53.972;12.286;2022-08-06T04:30:07;7.47;;;4.00;;
64826;SDS011;51265;53.972;12.286;2022-08-06T04:32:35;13.23;;;3.92;;
64826;SDS011;51265;53.972;12.286;2022-08-06T04:35:04;5.32;;;3.35;;
64826;SDS011;51265;53.972;12.286;2022-08-06T04:37:33;7.32;;;3.47;;
64826;SDS011;51265;53.972;12.286;2022-08-06T04:39:59;7.30;;;3.50;;
64826;SDS011;51265;53.972;12.286;2022-08-06T04:42:26;5.90;;;3.15;;
64826;SDS011;51265;53.972;12.286;2022-08-06T04:44:52;4.65;;;2.90;;
64826;SDS011;51265;53.972;12.286;2022-08-06T04:47:19;3.95;;;2.95;;
64826;SDS011;51265;53.972;12.286;2022-08-06T04:49:45;7.38;;;3.33;;
64826;SDS011;51265;53.972;12.286;2022-08-06T04:52:21;6.05;;;2.78;;
64826;SDS011;51265;53.972;12.286;2022-08-06T04:54:49;9.82;;;3.05;;
64826;SDS011;51265;53.972;12.286;2022-08-06T04:57:15;7.65;;;3.65;;
64826;SDS011;51265;53.972;12.286;2022-08-06T04:59:41;6.72;;;2.90;;
64826;SDS011;51265;53.972;12.286;2022-08-06T05:02:07;6.93;;;3.08;;
64826;SDS011;51265;53.972;12.286;2022-08-06T05:04:33;8.57;;;2.95;;
64826;SDS011;51265;53.972;12.286;2022-08-06T05:07:07;6.45;;;3.33;;
64826;SDS011;51265;53.972;12.286;2022-08-06T05:09:44;7.78;;;3.03;;
64826;SDS011;51265;53.972;12.286;2022-08-06T05:12:16;10.90;;;2.85;;
64826;SDS011;51265;53.972;12.286;2022-08-06T05:17:15;9.57;;;2.75;;
64826;SDS011;51265;53.972;12.286;2022-08-06T05:19:47;6.40;;;2.53;;
64826;SDS011;51265;53.972;12.286;2022-08-06T05:22:18;8.73;;;2.40;;
64826;SDS011;51265;53.972;12.286;2022-08-06T05:24:45;8.10;;;1.98;;
64826;SDS011;51265;53.972;12.286;2022-08-06T05:27:13;8.18;;;2.40;;
64826;SDS011;51265;53.972;12.286;2022-08-06T05:29:40;6.57;;;2.28;;
64826;SDS011;51265;53.972;12.286;2022-08-06T05:32:06;7.00;;;1.65;;
64826;SDS011;51265;53.972;12.286;2022-08-06T05:34:34;4.35;;;1.50;;
64826;SDS011;51265;53.972;12.286;2022-08-06T05:37:00;3.38;;;1.45;;
64826;SDS011;51265;53.972;12.286;2022-08-06T05:39:26;4.22;;;1.27;;
64826;SDS011;51265;53.972;12.286;2022-08-06T05:41:52;4.93;;;1.27;;
64826;SDS011;51265;53.972;12.286;2022-08-06T05:44:18;4.60;;;1.05;;
64826;SDS011;51265;53.972;12.286;2022-08-06T05:46:50;4.18;;;0.90;;
64826;SDS011;51265;53.972;12.286;2022-08-06T05:49:22;3.67;;;0.80;;
64826;SDS011;51265;53.972;12.286;2022-08-06T05:52:01;2.90;;;0.95;;
64826;SDS011;51265;53.972;12.286;2022-08-06T05:54:44;3.13;;;0.90;;
64826;SDS011;51265;53.972;12.286;2022-08-06T05:59:50;4.82;;;1.05;;
64826;SDS011;51265;53.972;12.286;2022-08-06T06:02:22;9.45;;;4.20;;
64826;SDS011;51265;53.972;12.286;2022-08-06T06:04:49;6.15;;;1.20;;
64826;SDS011;51265;53.972;12.286;2022-08-06T06:07:15;5.07;;;0.95;;
64826;SDS011;51265;53.972;12.286;2022-08-06T06:09:42;6.50;;;1.05;;
64826;SDS011;51265;53.972;12.286;2022-08-06T06:12:09;4.63;;;1.17;;
64826;SDS011;51265;53.972;12.286;2022-08-06T06:14:37;4.40;;;0.98;;
64826;SDS011;51265;53.972;12.286;2022-08-06T06:28:28;5.22;;;1.20;;
64826;SDS011;51265;53.972;12.286;2022-08-06T06:33:49;5.22;;;1.00;;
64826;SDS011;51265;53.972;12.286;2022-08-06T06:39:28;6.85;;;1.02;;
64826;SDS011;51265;53.972;12.286;2022-08-06T06:45:10;7.13;;;0.90;;
64826;SDS011;51265;53.972;12.286;2022-08-06T06:47:58;6.93;;;1.02;;
64826;SDS011;51265;53.972;12.286;2022-08-06T06:53:05;2.53;;;0.85;;
64826;SDS011;51265;53.972;12.286;2022-08-06T06:55:33;4.47;;;0.77;;
64826;SDS011;51265;53.972;12.286;2022-08-06T07:00:59;3.30;;;0.75;;
64826;SDS011;51265;53.972;12.286;2022-08-06T07:03:25;3.47;;;0.73;;
64826;SDS011;51265;53.972;12.286;2022-08-06T07:05:54;3.03;;;0.60;;
64826;SDS011;51265;53.972;12.286;2022-08-06T07:08:23;10.80;;;0.60;;
64826;SDS011;51265;53.972;12.286;2022-08-06T07:10:51;11.98;;;0.70;;
64826;SDS011;51265;53.972;12.286;2022-08-06T07:13:19;6.43;;;0.70;;
64826;SDS011;51265;53.972;12.286;2022-08-06T07:15:46;4.22;;;0.50;;
64826;SDS011;51265;53.972;12.286;2022-08-06T07:18:13;2.70;;;0.50;;
64826;SDS011;51265;53.972;12.286;2022-08-06T07:20:41;8.20;;;0.70;;
64826;SDS011;51265;53.972;12.286;2022-08-06T07:23:08;8.48;;;0.43;;
64826;SDS011;51265;53.972;12.286;2022-08-06T07:25:37;2.90;;;0.50;;
64826;SDS011;51265;53.972;12.286;2022-08-06T07:28:07;5.88;;;0.70;;
64826;SDS011;51265;53.972;12.286;2022-08-06T07:30:35;1.70;;;0.40;;
64826;SDS011;51265;53.972;12.286;2022-08-06T07:33:02;2.88;;;0.40;;
64826;SDS011;51265;53.972;12.286;2022-08-06T07:35:29;2.42;;;0.57;;
64826;SDS011;51265;53.972;12.286;2022-08-06T07:38:01;6.13;;;0.70;;
64826;SDS011;51265;53.972;12.286;2022-08-06T07:40:32;1.55;;;0.40;;
64826;SDS011;51265;53.972;12.286;2022-08-06T07:43:05;3.13;;;0.80;;
64826;SDS011;51265;53.972;12.286;2022-08-06T07:45:37;6.47;;;0.60;;
64826;SDS011;51265;53.972;12.286;2022-08-06T07:48:11;6.70;;;0.50;;
64826;SDS011;51265;53.972;12.286;2022-08-06T07:50:39;2.00;;;0.40;;
64826;SDS011;51265;53.972;12.286;2022-08-06T07:53:10;2.72;;;0.45;;
64826;SDS011;51265;53.972;12.286;2022-08-06T07:55:38;6.30;;;0.47;;
64826;SDS011;51265;53.972;12.286;2022-08-06T07:58:16;1.70;;;0.50;;
64826;SDS011;51265;53.972;12.286;2022-08-06T08:00:43;3.05;;;0.50;;
64826;SDS011;51265;53.972;12.286;2022-08-06T08:03:10;3.03;;;0.60;;
64826;SDS011;51265;53.972;12.286;2022-08-06T08:06:00;1.83;;;0.40;;
64826;SDS011;51265;53.972;12.286;2022-08-06T08:08:46;1.33;;;0.50;;
64826;SDS011;51265;53.972;12.286;2022-08-06T08:11:15;4.53;;;0.45;;
64826;SDS011;51265;53.972;12.286;2022-08-06T08:13:42;4.43;;;1.48;;
64826;SDS011;51265;53.972;12.286;2022-08-06T08:16:09;7.65;;;0.60;;
64826;SDS011;51265;53.972;12.286;2022-08-06T08:18:39;4.18;;;0.38;;
64826;SDS011;51265;53.972;12.286;2022-08-06T08:21:05;2.35;;;0.60;;
64826;SDS011;51265;53.972;12.286;2022-08-06T08:23:32;6.05;;;0.60;;
64826;SDS011;51265;53.972;12.286;2022-08-06T08:26:01;4.25;;;0.60;;
64826;SDS011;51265;53.972;12.286;2022-08-06T08:28:28;2.92;;;0.50;;
64826;SDS011;51265;53.972;12.286;2022-08-06T08:30:54;4.20;;;0.57;;
64826;SDS011;51265;53.972;12.286;2022-08-06T08:33:27;2.97;;;0.50;;
64826;SDS011;51265;53.972;12.286;2022-08-06T08:35:54;4.82;;;0.60;;
64826;SDS011;51265;53.972;12.286;2022-08-06T08:38:20;2.38;;;0.50;;
64826;SDS011;51265;53.972;12.286;2022-08-06T08:40:47;2.03;;;0.50;;
64826;SDS011;51265;53.972;12.286;2022-08-06T08:43:51;5.75;;;0.50;;
64826;SDS011;51265;53.972;12.286;2022-08-06T08:46:11;3.65;;;0.98;;
64826;SDS011;51265;53.972;12.286;2022-08-06T08:48:37;1.88;;;0.50;;
64826;SDS011;51265;53.972;12.286;2022-08-06T08:51:03;3.55;;;0.60;;
64826;SDS011;51265;53.972;12.286;2022-08-06T08:53:36;5.60;;;0.68;;
64826;SDS011;51265;53.972;12.286;2022-08-06T08:56:05;3.22;;;0.40;;
64826;SDS011;51265;53.972;12.286;2022-08-06T08:58:32;4.30;;;0.60;;
64826;SDS011;51265;53.972;12.286;2022-08-06T09:01:05;3.30;;;0.32;;
64826;SDS011;51265;53.972;12.286;2022-08-06T09:03:37;5.72;;;0.50;;
64826;SDS011;51265;53.972;12.286;2022-08-06T09:06:04;4.25;;;0.50;;
64826;SDS011;51265;53.972;12.286;2022-08-06T09:08:31;4.03;;;0.77;;
64826;SDS011;51265;53.972;12.286;2022-08-06T09:10:58;2.03;;;0.50;;
64826;SDS011;51265;53.972;12.286;2022-08-06T09:13:28;15.35;;;1.08;;
64826;SDS011;51265;53.972;12.286;2022-08-06T09:15:55;4.60;;;0.40;;
64826;SDS011;51265;53.972;12.286;2022-08-06T09:18:23;6.28;;;0.50;;
64826;SDS011;51265;53.972;12.286;2022-08-06T09:20:50;4.72;;;0.73;;
64826;SDS011;51265;53.972;12.286;2022-08-06T09:23:17;1.45;;;0.40;;
64826;SDS011;51265;53.972;12.286;2022-08-06T09:25:44;2.85;;;0.50;;
64826;SDS011;51265;53.972;12.286;2022-08-06T09:31:08;4.95;;;0.63;;
64826;SDS011;51265;53.972;12.286;2022-08-06T09:33:37;1.83;;;0.40;;
64826;SDS011;51265;53.972;12.286;2022-08-06T09:36:06;1.38;;;0.50;;
64826;SDS011;51265;53.972;12.286;2022-08-06T09:41:16;1.20;;;0.50;;
64826;SDS011;51265;53.972;12.286;2022-08-06T09:43:44;4.28;;;0.50;;
64826;SDS011;51265;53.972;12.286;2022-08-06T09:46:12;1.23;;;0.50;;
64826;SDS011;51265;53.972;12.286;2022-08-06T09:48:55;5.15;;;0.55;;
64826;SDS011;51265;53.972;12.286;2022-08-06T09:51:23;2.47;;;0.47;;
64826;SDS011;51265;53.972;12.286;2022-08-06T09:53:51;3.28;;;0.95;;
64826;SDS011;51265;53.972;12.286;2022-08-06T09:56:18;5.85;;;0.50;;
64826;SDS011;51265;53.972;12.286;2022-08-06T09:58:44;3.35;;;0.82;;
64826;SDS011;51265;53.972;12.286;2022-08-06T10:01:15;2.08;;;0.40;;
64826;SDS011;51265;53.972;12.286;2022-08-06T10:03:46;1.98;;;0.43;;
64826;SDS011;51265;53.972;12.286;2022-08-06T10:06:14;3.80;;;0.73;;
64826;SDS011;51265;53.972;12.286;2022-08-06T10:11:12;7.05;;;0.68;;
64826;SDS011;51265;53.972;12.286;2022-08-06T10:13:39;3.65;;;0.63;;
64826;SDS011;51265;53.972;12.286;2022-08-06T10:16:19;3.90;;;0.32;;
64826;SDS011;51265;53.972;12.286;2022-08-06T10:18:52;6.10;;;0.77;;
64826;SDS011;51265;53.972;12.286;2022-08-06T10:21:21;2.47;;;0.57;;
64826;SDS011;51265;53.972;12.286;2022-08-06T10:23:58;5.13;;;0.60;;
64826;SDS011;51265;53.972;12.286;2022-08-06T10:26:28;2.60;;;0.57;;
64826;SDS011;51265;53.972;12.286;2022-08-06T10:29:00;2.20;;;0.57;;
64826;SDS011;51265;53.972;12.286;2022-08-06T10:31:31;3.65;;;0.47;;
64826;SDS011;51265;53.972;12.286;2022-08-06T10:34:04;4.18;;;0.40;;
64826;SDS011;51265;53.972;12.286;2022-08-06T10:36:35;2.70;;;0.80;;
64826;SDS011;51265;53.972;12.286;2022-08-06T10:39:04;6.90;;;0.73;;
64826;SDS011;51265;53.972;12.286;2022-08-06T10:41:31;3.90;;;0.73;;
64826;SDS011;51265;53.972;12.286;2022-08-06T10:44:01;6.35;;;1.20;;
64826;SDS011;51265;53.972;12.286;2022-08-06T10:46:28;2.95;;;0.65;;
64826;SDS011;51265;53.972;12.286;2022-08-06T10:48:56;3.38;;;0.85;;
64826;SDS011;51265;53.972;12.286;2022-08-06T10:51:22;2.55;;;0.70;;
64826;SDS011;51265;53.972;12.286;2022-08-06T10:53:49;5.43;;;0.73;;
64826;SDS011;51265;53.972;12.286;2022-08-06T10:56:16;1.70;;;0.47;;
64826;SDS011;51265;53.972;12.286;2022-08-06T10:58:42;3.83;;;0.52;;
64826;SDS011;51265;53.972;12.286;2022-08-06T11:01:10;2.78;;;0.55;;
64826;SDS011;51265;53.972;12.286;2022-08-06T11:07:07;3.85;;;0.60;;
64826;SDS011;51265;53.972;12.286;2022-08-06T11:15:10;2.22;;;0.65;;
64826;SDS011;51265;53.972;12.286;2022-08-06T11:17:43;3.63;;;0.85;;
64826;SDS011;51265;53.972;12.286;2022-08-06T11:22:59;3.72;;;0.80;;
64826;SDS011;51265;53.972;12.286;2022-08-06T11:25:41;2.95;;;0.70;;
64826;SDS011;51265;53.972;12.286;2022-08-06T11:30:57;5.38;;;1.00;;
64826;SDS011;51265;53.972;12.286;2022-08-06T11:36:04;5.25;;;1.10;;
64826;SDS011;51265;53.972;12.286;2022-08-06T11:41:19;4.32;;;1.10;;
64826;SDS011;51265;53.972;12.286;2022-08-06T11:51:36;5.90;;;0.77;;
64826;SDS011;51265;53.972;12.286;2022-08-06T11:54:21;2.63;;;0.80;;
64826;SDS011;51265;53.972;12.286;2022-08-06T12:02:11;3.60;;;1.20;;
64826;SDS011;51265;53.972;12.286;2022-08-06T12:07:14;4.35;;;1.33;;
64826;SDS011;51265;53.972;12.286;2022-08-06T12:09:44;3.90;;;1.10;;
64826;SDS011;51265;53.972;12.286;2022-08-06T12:14:50;4.22;;;1.40;;
64826;SDS011;51265;53.972;12.286;2022-08-06T12:17:17;3.30;;;1.15;;
64826;SDS011;51265;53.972;12.286;2022-08-06T12:19:45;2.42;;;1.08;;
64826;SDS011;51265;53.972;12.286;2022-08-06T12:22:13;4.47;;;1.00;;
64826;SDS011;51265;53.972;12.286;2022-08-06T12:24:44;4.57;;;0.93;;
64826;SDS011;51265;53.972;12.286;2022-08-06T12:27:11;2.75;;;0.90;;
64826;SDS011;51265;53.972;12.286;2022-08-06T12:29:38;3.63;;;1.35;;
64826;SDS011;51265;53.972;12.286;2022-08-06T12:34:48;4.30;;;0.90;;
64826;SDS011;51265;53.972;12.286;2022-08-06T12:37:15;2.78;;;0.80;;
64826;SDS011;51265;53.972;12.286;2022-08-06T12:39:42;3.45;;;1.10;;
64826;SDS011;51265;53.972;12.286;2022-08-06T12:42:27;3.42;;;0.90;;
64826;SDS011;51265;53.972;12.286;2022-08-06T12:44:53;4.97;;;1.10;;
64826;SDS011;51265;53.972;12.286;2022-08-06T12:47:20;5.07;;;1.00;;
64826;SDS011;51265;53.972;12.286;2022-08-06T12:49:47;2.45;;;0.90;;
64826;SDS011;51265;53.972;12.286;2022-08-06T12:52:13;1.98;;;0.80;;
64826;SDS011;51265;53.972;12.286;2022-08-06T12:54:46;1.80;;;0.88;;
64826;SDS011;51265;53.972;12.286;2022-08-06T12:57:26;1.65;;;1.00;;
64826;SDS011;51265;53.972;12.286;2022-08-06T12:59:56;1.67;;;0.68;;
64826;SDS011;51265;53.972;12.286;2022-08-06T13:02:23;4.13;;;1.13;;
64826;SDS011;51265;53.972;12.286;2022-08-06T13:04:52;2.95;;;0.85;;
64826;SDS011;51265;53.972;12.286;2022-08-06T13:07:20;3.05;;;1.20;;
64826;SDS011;51265;53.972;12.286;2022-08-06T13:09:47;6.93;;;1.30;;
64826;SDS011;51265;53.972;12.286;2022-08-06T13:12:15;3.75;;;1.23;;
64826;SDS011;51265;53.972;12.286;2022-08-06T13:14:48;3.90;;;1.05;;
64826;SDS011;51265;53.972;12.286;2022-08-06T13:17:25;3.30;;;1.38;;
64826;SDS011;51265;53.972;12.286;2022-08-06T13:22:18;1.92;;;1.00;;
64826;SDS011;51265;53.972;12.286;2022-08-06T13:24:44;2.60;;;1.30;;
64826;SDS011;51265;53.972;12.286;2022-08-06T13:27:10;4.65;;;1.10;;
64826;SDS011;51265;53.972;12.286;2022-08-06T13:29:36;1.10;;;1.00;;
64826;SDS011;51265;53.972;12.286;2022-08-06T13:32:03;3.05;;;1.20;;
64826;SDS011;51265;53.972;12.286;2022-08-06T13:34:45;5.75;;;1.00;;
64826;SDS011;51265;53.972;12.286;2022-08-06T13:37:13;2.17;;;1.20;;
64826;SDS011;51265;53.972;12.286;2022-08-06T13:39:49;3.28;;;1.25;;
64826;SDS011;51265;53.972;12.286;2022-08-06T13:42:16;2.35;;;1.05;;
64826;SDS011;51265;53.972;12.286;2022-08-06T13:44:43;5.72;;;1.20;;
64826;SDS011;51265;53.972;12.286;2022-08-06T13:47:11;5.40;;;1.55;;
64826;SDS011;51265;53.972;12.286;2022-08-06T13:49:42;3.22;;;1.10;;
64826;SDS011;51265;53.972;12.286;2022-08-06T13:52:09;2.88;;;1.02;;
64826;SDS011;51265;53.972;12.286;2022-08-06T13:54:35;2.47;;;1.10;;
64826;SDS011;51265;53.972;12.286;2022-08-06T13:57:02;5.97;;;1.25;;
64826;SDS011;51265;53.972;12.286;2022-08-06T13:59:29;3.72;;;1.00;;
64826;SDS011;51265;53.972;12.286;2022-08-06T14:01:59;2.55;;;1.02;;
64826;SDS011;51265;53.972;12.286;2022-08-06T14:04:27;3.50;;;1.13;;
64826;SDS011;51265;53.972;12.286;2022-08-06T14:06:55;3.20;;;1.23;;
64826;SDS011;51265;53.972;12.286;2022-08-06T14:09:23;4.60;;;1.27;;
64826;SDS011;51265;53.972;12.286;2022-08-06T14:11:52;3.42;;;1.10;;
64826;SDS011;51265;53.972;12.286;2022-08-06T14:14:25;2.97;;;1.10;;
64826;SDS011;51265;53.972;12.286;2022-08-06T14:16:53;3.67;;;1.35;;
64826;SDS011;51265;53.972;12.286;2022-08-06T14:19:20;2.35;;;1.25;;
64826;SDS011;51265;53.972;12.286;2022-08-06T14:21:46;2.97;;;1.02;;
64826;SDS011;51265;53.972;12.286;2022-08-06T14:24:12;3.72;;;1.17;;
64826;SDS011;51265;53.972;12.286;2022-08-06T14:26:38;2.67;;;1.00;;
64826;SDS011;51265;53.972;12.286;2022-08-06T14:29:04;4.57;;;1.05;;
64826;SDS011;51265;53.972;12.286;2022-08-06T14:31:31;5.63;;;1.15;;
64826;SDS011;51265;53.972;12.286;2022-08-06T14:33:58;2.28;;;1.20;;
64826;SDS011;51265;53.972;12.286;2022-08-06T14:36:29;6.65;;;1.50;;
64826;SDS011;51265;53.972;12.286;2022-08-06T14:38:55;4.65;;;1.80;;
64826;SDS011;51265;53.972;12.286;2022-08-06T14:41:22;4.00;;;1.50;;
64826;SDS011;51265;53.972;12.286;2022-08-06T14:44:07;5.43;;;1.80;;
64826;SDS011;51265;53.972;12.286;2022-08-06T14:46:52;3.85;;;1.50;;
64826;SDS011;51265;53.972;12.286;2022-08-06T14:49:19;3.60;;;1.40;;
64826;SDS011;51265;53.972;12.286;2022-08-06T14:51:45;4.70;;;1.60;;
64826;SDS011;51265;53.972;12.286;2022-08-06T14:54:11;4.53;;;1.58;;
64826;SDS011;51265;53.972;12.286;2022-08-06T14:56:37;5.15;;;1.58;;
64826;SDS011;51265;53.972;12.286;2022-08-06T14:59:04;6.38;;;1.52;;
64826;SDS011;51265;53.972;12.286;2022-08-06T15:01:30;2.85;;;1.80;;
64826;SDS011;51265;53.972;12.286;2022-08-06T15:03:56;3.42;;;1.80;;
64826;SDS011;51265;53.972;12.286;2022-08-06T15:06:22;4.80;;;1.88;;
64826;SDS011;51265;53.972;12.286;2022-08-06T15:08:48;3.13;;;2.03;;
64826;SDS011;51265;53.972;12.286;2022-08-06T15:11:14;6.50;;;2.10;;
64826;SDS011;51265;53.972;12.286;2022-08-06T15:13:40;2.50;;;2.00;;
64826;SDS011;51265;53.972;12.286;2022-08-06T15:16:06;3.67;;;1.90;;
64826;SDS011;51265;53.972;12.286;2022-08-06T15:18:33;3.58;;;2.08;;
64826;SDS011;51265;53.972;12.286;2022-08-06T15:20:59;5.93;;;2.15;;
64826;SDS011;51265;53.972;12.286;2022-08-06T15:23:25;4.53;;;2.40;;
64826;SDS011;51265;53.972;12.286;2022-08-06T15:25:51;7.30;;;2.00;;
64826;SDS011;51265;53.972;12.286;2022-08-06T15:28:17;6.28;;;2.80;;
64826;SDS011;51265;53.972;12.286;2022-08-06T15:30:43;7.10;;;2.50;;
64826;SDS011;51265;53.972;12.286;2022-08-06T15:33:09;4.53;;;2.70;;
64826;SDS011;51265;53.972;12.286;2022-08-06T15:35:35;4.78;;;2.45;;
64826;SDS011;51265;53.972;12.286;2022-08-06T15:38:01;4.45;;;2.45;;
64826;SDS011;51265;53.972;12.286;2022-08-06T15:40:27;5.25;;;2.33;;
64826;SDS011;51265;53.972;12.286;2022-08-06T15:42:53;7.32;;;2.60;;
64826;SDS011;51265;53.972;12.286;2022-08-06T15:45:19;5.90;;;2.58;;
64826;SDS011;51265;53.972;12.286;2022-08-06T15:47:46;6.15;;;2.17;;
64826;SDS011;51265;53.972;12.286;2022-08-06T15:50:12;7.55;;;2.50;;
64826;SDS011;51265;53.972;12.286;2022-08-06T15:52:38;5.15;;;2.70;;
64826;SDS011;51265;53.972;12.286;2022-08-06T15:55:04;7.07;;;2.60;;
64826;SDS011;51265;53.972;12.286;2022-08-06T15:57:31;9.43;;;2.65;;
64826;SDS011;51265;53.972;12.286;2022-08-06T15:59:57;3.88;;;2.78;;
64826;SDS011;51265;53.972;12.286;2022-08-06T16:02:23;3.70;;;2.70;;
64826;SDS011;51265;53.972;12.286;2022-08-06T16:04:50;4.10;;;2.45;;
64826;SDS011;51265;53.972;12.286;2022-08-06T16:07:17;6.53;;;2.53;;
64826;SDS011;51265;53.972;12.286;2022-08-06T16:09:42;3.38;;;2.40;;
64826;SDS011;51265;53.972;12.286;2022-08-06T16:12:09;3.92;;;2.50;;
64826;SDS011;51265;53.972;12.286;2022-08-06T16:14:35;5.68;;;2.40;;
64826;SDS011;51265;53.972;12.286;2022-08-06T16:17:01;4.97;;;2.20;;
64826;SDS011;51265;53.972;12.286;2022-08-06T16:19:27;4.00;;;2.50;;
64826;SDS011;51265;53.972;12.286;2022-08-06T16:21:53;6.55;;;2.80;;